CheckWX is a tool to help pilots better visualize weather data.  It is not intended as a substitute for an official pre-flight weather briefing.

16:00:26 UTC

KSNA METAR
John Wayne-Orange County Airport
Santa Ana, California, USA
Current

30 mins ago

KSNA 291530Z 12005KT 10SM FEW021 BKN030 BKN034 14/08 A3010 RMK AO2 T01440078
Observed
Mar-29 @ 15:30 UTC
Wind
  • 120° at 5 KTS
Visibility
10 SM
Flight Rules
MVFR
Cloud Levels
  • Few at 2,100' AGL
  • Broken at 3,000' AGL
  • Broken at 3,400' AGL
Temperature
14°C / 57°F
Dewpoint
C / 46°F
Humidity
67%
Altimeter
30.1" Hg
Pressure
1019.32 hPa
Previous

1 hour ago

KSNA 291453Z 11004KT 10SM FEW012 BKN020 BKN028 13/07 A3009 RMK AO2 SLP189 T01330067 51013
Observed
Mar-29 @ 14:53 UTC
Wind
  • 110° at 4 KTS
Visibility
10 SM
Flight Rules
MVFR
Cloud Levels
  • Few at 1,200' AGL
  • Broken at 2,000' AGL
  • Broken at 2,800' AGL
Temperature
13°C / 55°F
Dewpoint
C / 45°F
Humidity
67%
Altimeter
30.09" Hg
Pressure
1018.92 hPa
Previous

2 hours ago

KSNA 291353Z 06004KT 10SM FEW012 BKN019 12/07 A3008 RMK AO2 SLP185 T01220072
Observed
Mar-29 @ 13:53 UTC
Wind
  • 060° at 4 KTS
Visibility
10 SM
Flight Rules
MVFR
Cloud Levels
  • Few at 1,200' AGL
  • Broken at 1,900' AGL
Temperature
12°C / 54°F
Dewpoint
C / 45°F
Humidity
72%
Altimeter
30.08" Hg
Pressure
1018.62 hPa